createdAt,value
2022-09-28T00:01:59.035Z,0.10
2022-09-28T00:04:25.726Z,0.10
2022-09-28T00:06:52.542Z,0.10
2022-09-28T00:09:19.069Z,0.10
2022-09-28T00:11:46.990Z,0.10
2022-09-28T00:14:13.949Z,0.10
2022-09-28T00:16:43.911Z,0.10
2022-09-28T00:19:12.754Z,0.00
2022-09-28T00:21:41.092Z,0.10
2022-09-28T00:24:22.976Z,0.10
2022-09-28T00:29:21.404Z,0.10
2022-09-28T00:31:49.218Z,0.10
2022-09-28T00:34:16.414Z,0.10
2022-09-28T00:36:45.887Z,0.10
2022-09-28T00:39:14.770Z,0.10
2022-09-28T00:41:42.039Z,0.10
2022-09-28T00:44:26.567Z,0.10
2022-09-28T00:46:53.246Z,0.10
2022-09-28T00:49:26.778Z,0.10
2022-09-28T00:51:54.730Z,0.10
2022-09-28T00:54:22.217Z,0.00
2022-09-28T00:56:49.319Z,0.00
2022-09-28T00:59:16.583Z,0.10
2022-09-28T01:01:43.962Z,0.10
2022-09-28T01:04:10.788Z,0.10
2022-09-28T01:06:38.983Z,0.10
2022-09-28T01:09:10.011Z,0.10
2022-09-28T01:11:38.810Z,0.10
2022-09-28T01:14:10.767Z,0.10
2022-09-28T01:17:02.278Z,0.00
2022-09-28T01:19:55.284Z,0.00
2022-09-28T01:22:38.898Z,0.05
2022-09-28T01:25:11.697Z,0.00
2022-09-28T01:28:18.755Z,0.10
2022-09-28T01:31:07.613Z,0.10
2022-09-28T01:33:54.814Z,0.08
2022-09-28T01:36:27.940Z,0.00
2022-09-28T01:39:09.869Z,0.00
2022-09-28T01:41:40.438Z,0.03
2022-09-28T01:44:14.033Z,0.00
2022-09-28T01:46:44.867Z,0.00
2022-09-28T01:49:22.644Z,0.00
2022-09-28T01:52:02.649Z,0.10
2022-09-28T01:54:37.289Z,0.10
2022-09-28T01:57:21.667Z,0.00
2022-09-28T01:59:56.465Z,0.10
2022-09-28T02:02:29.667Z,0.10
2022-09-28T02:05:11.903Z,0.00
2022-09-28T02:08:24.919Z,0.00
2022-09-28T02:10:58.477Z,0.10
2022-09-28T02:13:33.880Z,0.10
2022-09-28T02:16:09.859Z,0.10
2022-09-28T02:18:36.753Z,0.10
2022-09-28T02:21:12.674Z,0.03
2022-09-28T02:23:44.919Z,0.00
2022-09-28T02:26:17.069Z,0.00
2022-09-28T02:28:43.729Z,0.10
2022-09-28T02:31:10.431Z,0.03
2022-09-28T02:33:41.237Z,0.10
2022-09-28T02:36:08.077Z,0.00
2022-09-28T02:38:38.303Z,0.00
2022-09-28T02:41:42.085Z,0.00
2022-09-28T02:44:33.621Z,0.00
2022-09-28T02:47:14.582Z,0.05
2022-09-28T02:49:50.619Z,0.10
2022-09-28T02:52:35.165Z,0.00
2022-09-28T02:55:17.547Z,0.10
2022-09-28T02:58:06.835Z,0.00
2022-09-28T03:00:41.276Z,0.10
2022-09-28T03:03:12.715Z,0.10
2022-09-28T03:06:03.391Z,0.10
2022-09-28T03:08:59.643Z,0.10
2022-09-28T03:11:42.439Z,0.00
2022-09-28T03:14:10.290Z,0.00
2022-09-28T03:16:47.209Z,0.10
2022-09-28T03:19:16.517Z,0.10
2022-09-28T03:21:43.236Z,0.10
2022-09-28T03:24:11.189Z,0.10
2022-09-28T03:26:41.531Z,0.00
2022-09-28T03:29:08.456Z,0.10
2022-09-28T03:31:35.381Z,0.10
2022-09-28T03:34:02.640Z,0.10
2022-09-28T03:36:29.862Z,0.10
2022-09-28T03:38:56.567Z,0.00
2022-09-28T03:41:24.675Z,0.10
2022-09-28T03:43:51.311Z,0.10
2022-09-28T03:46:17.961Z,0.10
2022-09-28T03:48:48.509Z,0.10
2022-09-28T03:51:15.097Z,0.10
2022-09-28T03:53:41.701Z,0.03
2022-09-28T03:56:13.177Z,0.10
2022-09-28T03:58:41.067Z,0.10
2022-09-28T04:01:16.551Z,0.10
2022-09-28T04:03:45.363Z,0.03
2022-09-28T04:06:12.776Z,0.10
2022-09-28T04:08:39.737Z,0.10
2022-09-28T04:11:06.851Z,0.10
2022-09-28T04:13:33.845Z,0.10
2022-09-28T04:16:01.601Z,0.10
2022-09-28T04:18:32.594Z,0.10
2022-09-28T04:21:20.202Z,0.10
2022-09-28T04:24:10.912Z,0.10
2022-09-28T04:26:37.778Z,0.00
2022-09-28T04:29:16.703Z,0.00
2022-09-28T04:31:52.970Z,0.10
2022-09-28T04:34:23.359Z,0.10
2022-09-28T04:36:50.528Z,0.10
2022-09-28T04:39:19.257Z,0.10
2022-09-28T04:41:49.395Z,0.10
2022-09-28T04:44:16.406Z,0.10
2022-09-28T04:46:45.091Z,0.10
2022-09-28T04:49:37.110Z,0.10
2022-09-28T04:52:08.984Z,0.10
2022-09-28T04:54:35.967Z,0.10
2022-09-28T04:57:03.836Z,0.10
2022-09-28T04:59:30.453Z,0.10
2022-09-28T05:01:57.166Z,0.10
2022-09-28T05:04:42.646Z,0.10
2022-09-28T05:07:26.969Z,0.10
2022-09-28T05:09:55.308Z,0.10
2022-09-28T05:12:22.058Z,0.10
2022-09-28T05:14:48.670Z,0.10
2022-09-28T05:17:15.470Z,0.10
2022-09-28T05:22:27.284Z,0.10
2022-09-28T05:24:55.086Z,0.10
2022-09-28T05:27:23.531Z,0.10
2022-09-28T05:29:59.166Z,0.10
2022-09-28T05:32:45.648Z,0.10
2022-09-28T05:35:32.474Z,0.10
2022-09-28T05:38:04.548Z,0.10
2022-09-28T05:40:31.750Z,0.10
2022-09-28T05:43:02.087Z,0.10
2022-09-28T05:45:29.813Z,0.10
2022-09-28T05:47:56.756Z,0.10
2022-09-28T05:50:23.708Z,0.10
2022-09-28T05:53:05.844Z,0.10
2022-09-28T05:55:33.431Z,0.10
2022-09-28T05:58:01.852Z,0.10
2022-09-28T06:00:30.511Z,0.10
2022-09-28T06:03:09.633Z,0.10
2022-09-28T06:05:38.860Z,0.10
2022-09-28T06:08:08.457Z,0.10
2022-09-28T06:10:35.231Z,0.10
2022-09-28T06:13:02.726Z,0.10
2022-09-28T06:15:31.285Z,0.10
2022-09-28T06:18:01.317Z,0.10
2022-09-28T06:20:42.938Z,0.10
2022-09-28T06:23:26.864Z,0.10
2022-09-28T06:25:54.401Z,0.10
2022-09-28T06:28:20.937Z,0.10
2022-09-28T06:30:48.238Z,0.10
2022-09-28T06:33:17.448Z,0.10
2022-09-28T06:35:44.180Z,0.10
2022-09-28T06:38:11.244Z,0.10
2022-09-28T06:40:38.080Z,0.10
2022-09-28T06:43:11.298Z,0.10
2022-09-28T06:45:56.314Z,0.10
2022-09-28T06:48:33.505Z,0.00
2022-09-28T06:51:01.247Z,0.00
2022-09-28T06:53:32.565Z,0.00
2022-09-28T06:56:10.634Z,0.00
2022-09-28T06:58:37.474Z,0.00
2022-09-28T07:01:04.171Z,0.10
2022-09-28T07:03:40.746Z,0.00
2022-09-28T07:06:26.822Z,0.10
2022-09-28T07:09:33.934Z,0.10
2022-09-28T07:12:13.495Z,0.10
2022-09-28T07:15:07.423Z,0.10
2022-09-28T07:17:50.954Z,0.00
2022-09-28T07:20:25.149Z,0.10
2022-09-28T07:22:57.354Z,0.10
2022-09-28T07:25:26.796Z,0.00
2022-09-28T07:28:05.633Z,0.00
2022-09-28T07:30:50.479Z,0.00
2022-09-28T07:33:35.287Z,0.10
2022-09-28T07:36:21.031Z,0.00
2022-09-28T07:38:48.069Z,0.00
2022-09-28T07:41:17.068Z,0.10
2022-09-28T07:43:49.820Z,0.00
2022-09-28T07:46:17.579Z,0.10
2022-09-28T07:48:54.616Z,0.10
2022-09-28T07:51:33.619Z,0.10
2022-09-28T07:54:17.934Z,0.05
2022-09-28T07:56:57.531Z,0.10
2022-09-28T07:59:48.568Z,0.00
2022-09-28T08:02:53.548Z,0.00
2022-09-28T08:05:24.249Z,0.00
2022-09-28T08:07:50.802Z,0.00
2022-09-28T08:10:17.786Z,0.10
2022-09-28T08:12:47.377Z,0.10
2022-09-28T08:15:51.165Z,0.10
2022-09-28T08:18:33.070Z,0.10
2022-09-28T08:21:19.757Z,0.03
2022-09-28T08:23:46.305Z,0.10
2022-09-28T08:26:15.514Z,0.00
2022-09-28T08:28:45.173Z,0.00
2022-09-28T08:31:37.881Z,0.10
2022-09-28T08:34:42.290Z,0.00
2022-09-28T08:37:19.742Z,0.00
2022-09-28T08:40:05.347Z,0.00
2022-09-28T08:42:55.482Z,0.10
2022-09-28T08:45:42.096Z,0.10
2022-09-28T08:49:13.334Z,0.00
2022-09-28T08:52:14.057Z,0.05
2022-09-28T08:55:37.828Z,0.00
2022-09-28T08:58:11.669Z,0.10
2022-09-28T09:00:47.494Z,0.00
2022-09-28T09:03:21.277Z,0.00
2022-09-28T09:06:06.902Z,0.10
2022-09-28T09:09:26.728Z,0.00
2022-09-28T09:12:01.303Z,0.00
2022-09-28T09:14:59.398Z,0.00
2022-09-28T09:17:47.750Z,0.00
2022-09-28T09:20:57.625Z,0.00
2022-09-28T09:23:39.180Z,0.00
2022-09-28T09:26:22.970Z,0.00
2022-09-28T09:29:43.284Z,0.00
2022-09-28T09:32:26.108Z,0.00
2022-09-28T09:35:06.305Z,0.00
2022-09-28T09:38:28.573Z,0.00
2022-09-28T09:41:42.598Z,0.00
2022-09-28T09:44:49.757Z,0.00
2022-09-28T09:47:48.905Z,0.10
2022-09-28T09:50:44.815Z,0.00
2022-09-28T09:53:38.626Z,0.00
2022-09-28T09:56:16.266Z,0.00
2022-09-28T09:59:20.031Z,0.00
2022-09-28T10:02:23.847Z,0.00
2022-09-28T10:05:01.772Z,0.00
2022-09-28T10:07:44.185Z,0.00
2022-09-28T10:10:25.209Z,0.00
2022-09-28T10:12:54.026Z,0.00
2022-09-28T10:15:41.275Z,0.00
2022-09-28T10:18:21.186Z,0.00
2022-09-28T10:21:06.399Z,0.00
2022-09-28T10:24:02.934Z,0.00
2022-09-28T10:26:37.397Z,0.00
2022-09-28T10:29:14.679Z,0.00
2022-09-28T10:31:45.378Z,0.00
2022-09-28T10:34:37.947Z,0.00
2022-09-28T10:37:12.302Z,0.00
2022-09-28T10:40:05.637Z,0.00
2022-09-28T10:42:36.229Z,0.00
2022-09-28T10:45:20.238Z,0.00
2022-09-28T10:47:47.544Z,0.00
2022-09-28T10:50:23.708Z,0.00
2022-09-28T10:53:19.509Z,0.00
2022-09-28T10:56:22.367Z,0.00
2022-09-28T10:58:56.189Z,0.00
2022-09-28T11:01:33.157Z,0.00
2022-09-28T11:04:02.677Z,0.00
2022-09-28T11:06:31.907Z,0.00
2022-09-28T11:09:05.402Z,0.00
2022-09-28T11:11:40.803Z,0.00
2022-09-28T11:14:25.047Z,0.00
2022-09-28T11:17:24.021Z,0.00
2022-09-28T11:19:51.389Z,0.00
2022-09-28T11:22:37.883Z,0.00
2022-09-28T11:25:33.253Z,0.00
2022-09-28T11:28:04.341Z,0.00
2022-09-28T11:30:38.358Z,0.00
2022-09-28T11:33:39.967Z,0.00
2022-09-28T11:37:01.437Z,0.00
2022-09-28T11:39:40.902Z,0.00
2022-09-28T11:42:29.356Z,0.00
2022-09-28T11:45:18.350Z,0.00
2022-09-28T11:47:50.087Z,0.00
2022-09-28T11:50:46.768Z,0.00
2022-09-28T11:53:24.674Z,0.00
2022-09-28T11:56:26.807Z,0.00
2022-09-28T11:59:04.058Z,0.00
2022-09-28T12:01:48.686Z,0.00
2022-09-28T12:04:57.017Z,0.00
2022-09-28T12:07:38.411Z,0.00
2022-09-28T12:10:17.368Z,0.00
2022-09-28T12:12:49.741Z,0.00
2022-09-28T12:15:23.564Z,0.00
2022-09-28T12:17:54.788Z,0.00
2022-09-28T12:20:24.778Z,0.00
2022-09-28T12:23:05.636Z,0.00
2022-09-28T12:25:42.577Z,0.00
2022-09-28T12:28:18.850Z,0.00
2022-09-28T12:30:47.631Z,0.00
2022-09-28T12:33:18.098Z,0.00
2022-09-28T12:35:50.386Z,0.00
2022-09-28T12:38:23.039Z,0.00
2022-09-28T12:40:58.688Z,0.00
2022-09-28T12:43:33.390Z,0.00
2022-09-28T12:46:12.778Z,0.00
2022-09-28T12:49:56.228Z,0.00
2022-09-28T12:51:50.338Z,0.00
2022-09-28T12:54:34.471Z,0.00
2022-09-28T12:57:30.430Z,0.00
2022-09-28T13:00:05.335Z,0.00
2022-09-28T13:03:01.438Z,0.00
2022-09-28T13:05:36.882Z,0.00
2022-09-28T13:08:03.656Z,0.00
2022-09-28T13:10:42.855Z,0.00
2022-09-28T13:13:18.414Z,0.00
2022-09-28T13:15:56.687Z,0.00
2022-09-28T13:18:45.644Z,0.00
2022-09-28T13:21:37.774Z,0.00
2022-09-28T13:24:27.808Z,0.00
2022-09-28T13:26:57.022Z,0.00
2022-09-28T13:29:25.073Z,0.00
2022-09-28T13:31:57.155Z,0.00
2022-09-28T13:34:33.442Z,0.00
2022-09-28T13:37:18.131Z,0.00
2022-09-28T13:39:44.639Z,0.00
2022-09-28T13:42:31.903Z,0.00
2022-09-28T13:45:23.483Z,0.00
2022-09-28T13:48:13.185Z,0.00
2022-09-28T13:50:45.871Z,0.00
2022-09-28T13:53:27.665Z,0.00
2022-09-28T13:56:22.939Z,0.00
2022-09-28T13:59:21.940Z,0.00
2022-09-28T14:02:14.954Z,0.00
2022-09-28T14:04:56.817Z,0.00
2022-09-28T14:08:04.648Z,0.00
2022-09-28T14:10:54.068Z,0.00
2022-09-28T14:13:42.709Z,0.00
2022-09-28T14:16:18.424Z,0.00
2022-09-28T14:18:51.765Z,0.00
2022-09-28T14:21:52.395Z,0.00
2022-09-28T14:24:39.311Z,0.00
2022-09-28T14:27:14.769Z,0.00
2022-09-28T14:29:41.459Z,0.00
2022-09-28T14:32:07.943Z,0.00
2022-09-28T14:34:47.984Z,0.00
2022-09-28T14:37:45.949Z,0.00
2022-09-28T14:40:50.043Z,0.00
2022-09-28T14:43:28.404Z,0.00
2022-09-28T14:46:15.299Z,0.00
2022-09-28T14:49:02.511Z,0.00
2022-09-28T14:51:37.918Z,0.00
2022-09-28T14:54:13.149Z,0.00
2022-09-28T14:56:41.830Z,0.00
2022-09-28T14:59:16.598Z,0.00
2022-09-28T15:01:48.056Z,0.00
2022-09-28T15:04:15.360Z,0.00
2022-09-28T15:06:49.915Z,0.00
2022-09-28T15:09:34.128Z,0.00
2022-09-28T15:14:53.141Z,0.00
2022-09-28T15:17:26.873Z,0.00
2022-09-28T15:20:21.633Z,0.00
2022-09-28T15:22:50.399Z,0.00
2022-09-28T15:25:20.414Z,0.00
2022-09-28T15:27:58.030Z,0.00
2022-09-28T15:30:33.023Z,0.00
2022-09-28T15:33:20.312Z,0.00
2022-09-28T15:35:52.411Z,0.00
2022-09-28T15:38:19.121Z,0.00
2022-09-28T15:40:47.586Z,0.00
2022-09-28T15:43:24.167Z,0.00
2022-09-28T15:46:13.954Z,0.00
2022-09-28T15:48:46.150Z,0.00
2022-09-28T15:51:12.786Z,0.00
2022-09-28T15:53:47.464Z,0.00
2022-09-28T15:56:14.184Z,0.00
2022-09-28T15:58:40.806Z,0.00
2022-09-28T16:01:28.430Z,0.00
2022-09-28T16:03:55.178Z,0.00
2022-09-28T16:06:22.482Z,0.00
2022-09-28T16:08:49.119Z,0.00
2022-09-28T16:11:45.201Z,0.00
2022-09-28T16:14:21.379Z,0.00
2022-09-28T16:16:50.402Z,0.00
2022-09-28T16:19:29.541Z,0.00
2022-09-28T16:22:02.241Z,0.00
2022-09-28T16:24:33.267Z,0.00
2022-09-28T16:27:09.178Z,0.00
2022-09-28T16:29:41.286Z,0.00
2022-09-28T16:32:26.153Z,0.00
2022-09-28T16:35:18.658Z,0.00
2022-09-28T16:37:45.645Z,0.00
2022-09-28T16:40:12.841Z,0.00
2022-09-28T16:42:44.393Z,0.00
2022-09-28T16:47:44.434Z,0.00
2022-09-28T16:50:15.215Z,0.00
2022-09-28T16:53:00.364Z,0.00
2022-09-28T16:55:43.137Z,0.00
2022-09-28T16:58:09.853Z,0.00
2022-09-28T17:00:36.731Z,0.00
2022-09-28T17:03:12.730Z,0.00
2022-09-28T17:05:40.233Z,0.00
2022-09-28T17:08:06.981Z,0.00
2022-09-28T17:10:44.845Z,0.00
2022-09-28T17:13:33.306Z,0.00
2022-09-28T17:16:02.877Z,0.00
2022-09-28T17:18:31.946Z,0.00
2022-09-28T17:21:03.192Z,0.00
2022-09-28T17:23:30.471Z,0.00
2022-09-28T17:25:59.190Z,0.00
2022-09-28T17:28:32.370Z,0.00
2022-09-28T17:30:59.242Z,0.00
2022-09-28T17:33:25.966Z,0.00
2022-09-28T17:35:58.950Z,0.00
2022-09-28T17:38:25.746Z,0.00
2022-09-28T17:40:52.627Z,0.00
2022-09-28T17:43:21.130Z,0.00
2022-09-28T17:45:48.966Z,0.00
2022-09-28T17:48:18.238Z,0.05
2022-09-28T17:50:47.522Z,0.00
2022-09-28T17:53:14.883Z,0.00
2022-09-28T17:55:43.153Z,0.00
2022-09-28T17:58:17.248Z,0.00
2022-09-28T18:00:46.077Z,0.00
2022-09-28T18:03:18.215Z,0.00
2022-09-28T18:05:45.092Z,0.08
2022-09-28T18:08:13.954Z,0.00
2022-09-28T18:10:40.565Z,0.00
2022-09-28T18:13:07.269Z,0.00
2022-09-28T18:15:34.186Z,0.10
2022-09-28T18:18:00.914Z,0.00
2022-09-28T18:20:27.497Z,0.10
2022-09-28T18:22:54.016Z,0.00
2022-09-28T18:25:20.571Z,0.00
2022-09-28T18:27:47.122Z,0.00
2022-09-28T18:30:13.862Z,0.00
2022-09-28T18:32:40.610Z,0.00
2022-09-28T18:35:09.288Z,0.00
2022-09-28T18:37:37.721Z,0.10
2022-09-28T18:40:04.788Z,0.00
2022-09-28T18:42:32.250Z,0.10
2022-09-28T18:44:58.793Z,0.00
2022-09-28T18:47:26.399Z,0.00
2022-09-28T18:49:52.997Z,0.00
2022-09-28T18:52:19.609Z,0.00
2022-09-28T18:54:46.890Z,0.00
2022-09-28T18:57:13.456Z,0.00
2022-09-28T18:59:39.991Z,0.00
2022-09-28T19:02:06.970Z,0.00
2022-09-28T19:04:33.600Z,0.00
2022-09-28T19:07:00.131Z,0.00
2022-09-28T19:09:26.812Z,0.00
2022-09-28T19:11:53.450Z,0.00
2022-09-28T19:14:20.082Z,0.10
2022-09-28T19:16:47.006Z,0.10
2022-09-28T19:19:16.288Z,0.10
2022-09-28T19:21:43.527Z,0.00
2022-09-28T19:24:15.511Z,0.00
2022-09-28T19:26:43.083Z,0.10
2022-09-28T19:29:10.399Z,0.00
2022-09-28T19:31:37.454Z,0.00
2022-09-28T19:34:04.806Z,0.00
2022-09-28T19:36:32.007Z,0.00
2022-09-28T19:39:03.472Z,0.10
2022-09-28T19:41:43.445Z,0.00
2022-09-28T19:44:24.892Z,0.00
2022-09-28T19:47:10.004Z,0.00
2022-09-28T19:49:38.769Z,0.03
2022-09-28T19:52:16.495Z,0.00
2022-09-28T19:54:45.586Z,0.10
2022-09-28T19:57:14.536Z,0.00
2022-09-28T19:59:41.252Z,0.00
2022-09-28T20:02:10.134Z,0.00
2022-09-28T20:04:36.876Z,0.10
2022-09-28T20:07:04.346Z,0.00
2022-09-28T20:09:32.463Z,0.10
2022-09-28T20:11:59.044Z,0.10
2022-09-28T20:14:27.542Z,0.00
2022-09-28T20:16:57.302Z,0.00
2022-09-28T20:19:23.977Z,0.00
2022-09-28T20:21:50.720Z,0.00
2022-09-28T20:24:17.669Z,0.08
2022-09-28T20:26:46.009Z,0.10
2022-09-28T20:29:13.146Z,0.10
2022-09-28T20:31:39.865Z,0.00
2022-09-28T20:34:07.044Z,0.00
2022-09-28T20:36:34.317Z,0.00
2022-09-28T20:39:04.538Z,0.10
2022-09-28T20:41:36.705Z,0.10
2022-09-28T20:44:14.304Z,0.00
2022-09-28T20:46:40.959Z,0.00
2022-09-28T20:49:07.823Z,0.10
2022-09-28T20:51:34.715Z,0.00
2022-09-28T20:54:01.398Z,0.00
2022-09-28T20:56:30.786Z,0.10
2022-09-28T20:58:57.757Z,0.00
2022-09-28T21:01:30.052Z,0.10
2022-09-28T21:04:01.571Z,0.00
2022-09-28T21:06:30.337Z,0.00
2022-09-28T21:08:57.492Z,0.10
2022-09-28T21:11:25.623Z,0.10
2022-09-28T21:13:58.186Z,0.10
2022-09-28T21:16:26.559Z,0.00
2022-09-28T21:18:53.496Z,0.10
2022-09-28T21:21:21.515Z,0.10
2022-09-28T21:23:48.417Z,0.10
2022-09-28T21:26:24.445Z,0.10
2022-09-28T21:28:54.648Z,0.00
2022-09-28T21:31:28.267Z,0.00
2022-09-28T21:33:56.173Z,0.10
2022-09-28T21:36:22.766Z,0.10
2022-09-28T21:38:49.427Z,0.00
2022-09-28T21:41:16.480Z,0.10
2022-09-28T21:43:43.178Z,0.10
2022-09-28T21:46:10.423Z,0.10
2022-09-28T21:48:37.218Z,0.10
2022-09-28T21:51:07.009Z,0.10
2022-09-28T21:53:36.567Z,0.10
2022-09-28T21:56:05.414Z,0.10
2022-09-28T21:58:34.109Z,0.10
2022-09-28T22:01:01.644Z,0.10
2022-09-28T22:03:29.158Z,0.00
2022-09-28T22:05:55.745Z,0.08
2022-09-28T22:08:23.463Z,0.10
2022-09-28T22:11:01.994Z,0.10
2022-09-28T22:13:30.620Z,0.10
2022-09-28T22:16:00.269Z,0.10
2022-09-28T22:18:28.808Z,0.10
2022-09-28T22:21:07.203Z,0.10
2022-09-28T22:23:34.121Z,0.10
2022-09-28T22:26:22.724Z,0.10
2022-09-28T22:28:57.490Z,0.10
2022-09-28T22:31:27.483Z,0.10
2022-09-28T22:33:54.121Z,0.10
2022-09-28T22:36:21.053Z,0.10
2022-09-28T22:38:48.338Z,0.10
2022-09-28T22:41:16.780Z,0.10
2022-09-28T22:43:43.801Z,0.10
2022-09-28T22:46:13.022Z,0.10
2022-09-28T22:48:39.980Z,0.00
2022-09-28T22:51:07.156Z,0.10
2022-09-28T22:53:34.797Z,0.10
2022-09-28T22:56:05.302Z,0.10
2022-09-28T22:58:32.847Z,0.10
2022-09-28T23:01:10.927Z,0.10
2022-09-28T23:03:40.115Z,0.10
2022-09-28T23:06:07.376Z,0.10
2022-09-28T23:08:34.580Z,0.10
2022-09-28T23:11:01.454Z,0.00
2022-09-28T23:13:28.851Z,0.10
2022-09-28T23:16:02.248Z,0.10
2022-09-28T23:18:31.613Z,0.10
2022-09-28T23:21:04.564Z,0.10
2022-09-28T23:23:31.776Z,0.10
2022-09-28T23:25:58.872Z,0.10
2022-09-28T23:28:26.505Z,0.10
2022-09-28T23:30:53.608Z,0.10
2022-09-28T23:33:21.679Z,0.10
2022-09-28T23:35:48.285Z,0.10
2022-09-28T23:38:20.156Z,0.10
2022-09-28T23:40:47.425Z,0.10
2022-09-28T23:43:14.667Z,0.10
2022-09-28T23:45:44.697Z,0.10
2022-09-28T23:48:12.830Z,0.10
2022-09-28T23:50:39.365Z,0.30
2022-09-28T23:53:06.631Z,0.60
2022-09-28T23:55:33.160Z,0.77
2022-09-28T23:57:59.702Z,0.50
